Thursday, October 19, 2017, 2:12 PM EDT
Back to Local

KPTW, Pottstown Limerick Airport

Location: Royersford, PA, United States Lat: 40.233
Local Time: 2:12 PM EDT (18:12 GMT) Lon: -75.55
Time Zone: US/Eastern Elev: 291 ft

Show me the last for .
Show Decoded

2017-10-19 13:54 METAR KPTW 191754Z AUTO 20007KT 170V240 10SM CLR 21/06 A3019 RMK AO2 SLP221
                 T02060061 10206 20050 58025 =
2017-10-19 12:54 METAR KPTW 191654Z AUTO 22007G15KT 190V250 10SM CLR 19/04 A3022 RMK AO2 SLP232
                 T01940044 =
2017-10-19 11:54 METAR KPTW 191554Z AUTO VRB06KT 10SM CLR 18/07 A3026 RMK AO2 SLP243 T01830072 =
2017-10-19 10:54 METAR KPTW 191454Z AUTO 19005KT 9SM CLR 16/08 A3027 RMK AO2 SLP248 T01560083
                 58003 =
2017-10-19 09:54 METAR KPTW 191354Z AUTO 20004KT 8SM CLR 13/09 A3028 RMK AO2 SLP251 T01330089 =
2017-10-19 08:54 METAR KPTW 191254Z AUTO 00000KT 5SM BR CLR 11/09 A3028 RMK AO2 SLP252 T01060094
                 =
2017-10-19 07:54 METAR KPTW 191154Z AUTO 00000KT 4SM BR CLR 05/05 A3028 RMK AO2 SLP251 T00500050
                 10078 20044 56001 =
2017-10-19 06:54 METAR KPTW 191054Z AUTO 00000KT 5SM BR CLR 04/04 A3028 RMK AO2 SLP251 T00440044
                 =
2017-10-19 05:54 METAR KPTW 190954Z AUTO 00000KT 6SM BR CLR 06/06 A3028 RMK AO2 SLP251 T00560056
                 =
2017-10-19 04:54 METAR KPTW 190854Z AUTO 00000KT 7SM CLR 07/06 A3028 RMK AO2 SLP251 T00670061
                 55005 =
2017-10-19 03:54 METAR KPTW 190754Z AUTO 00000KT 7SM CLR 07/07 A3028 RMK AO2 SLP250 T00670067 =
2017-10-19 02:54 METAR KPTW 190654Z AUTO 00000KT 8SM CLR 07/06 A3029 RMK AO2 SLP253 T00670061 =
2017-10-19 01:54 METAR KPTW 190554Z AUTO 00000KT 8SM CLR 08/07 A3030 RMK AO2 SLP256 T00830072
                 10122 20078 57007 =
2017-10-19 00:54 METAR KPTW 190454Z AUTO 00000KT 8SM CLR 08/07 A3030 RMK AO2 SLP258 T00780072
                 402110028 =
2017-10-18 23:54 METAR KPTW 190354Z AUTO 00000KT 9SM CLR 08/07 A3031 RMK AO2 SLP261 T00830072 =
2017-10-18 22:54 METAR KPTW 190254Z AUTO 00000KT 9SM CLR 09/08 A3032 RMK AO2 SLP264 T00890078
                 50002 =
2017-10-18 21:54 METAR KPTW 190154Z AUTO 00000KT 9SM CLR 09/08 A3032 RMK AO2 SLP266 T00940083 =
2017-10-18 20:54 METAR KPTW 190054Z AUTO 00000KT 10SM CLR 11/09 A3032 RMK AO2 SLP265 T01060089 =
2017-10-18 19:54 METAR KPTW 182354Z AUTO 00000KT 10SM CLR 12/08 A3031 RMK AO2 SLP263 T01220078
                 10211 20122 53007 =
2017-10-18 18:54 METAR KPTW 182254Z AUTO 00000KT 10SM CLR 14/08 A3030 RMK AO2 SLP258 T01440078 =
2017-10-18 17:54 METAR KPTW 182154Z AUTO 23003KT 9SM CLR 19/07 A3029 RMK AO2 SLP255 T01890067 =
2017-10-18 16:54 METAR KPTW 182054Z AUTO VRB04KT 9SM CLR 21/07 A3029 RMK AO2 SLP255 T02060067
                 56010 =
2017-10-18 15:54 METAR KPTW 181954Z AUTO 22005KT 10SM CLR 21/07 A3029 RMK AO2 SLP257 T02110072 =
2017-10-18 14:54 METAR KPTW 181854Z AUTO 30004KT 9SM CLR 21/07 A3031 RMK AO2 SLP262 T02060072 =

Support USWX by starting your Amazon purchase here.